Ljuta — J8B4127 — position and weather

sailwx.info

Track history (hours):
 
Tides and Currents Weather Stations Pressure Air Temp Water Temp Dewpoint Dewpoint Depression Visibility Wind Speed Wind Dir Waves Ship Positions

Ljuta

Last reported at 2015-May-19 11:13 UTC. Time now 2015-May-22 14:38 UTC.
Position N 49°28' E 000°56'.

Length 177 m; draft 6.1 m.

Type: Cargo ship. MMSI: 377715000.

Date/timePositionNaut miles runAvg speedWind from/ knotsBaromVisibWave heightAir tempDewpointWater temp
2015-May-19 11:13N 49°28' E 000°56'4 6.3
2015-May-19 10:31N 49°24' E 000°52'9 7.2
2015-May-19 09:14N 49°29' E 000°40'6 8.2
2015-May-19 08:33N 49°29' E 000°32'1313.4
2015-May-19 07:34N 49°26' E 000°11'1110.7
2015-May-19 06:34N 49°29' W 000°04'3 3.0
2015-May-19 05:32N 49°29' W 000°09'0 0.0
2015-May-19 04:32N 49°29' W 000°09'0 0.2
2015-May-19 03:32N 49°29' W 000°09'1 1.5
2015-May-19 02:33N 49°30' W 000°11'7 7.3
2015-May-19 01:33N 49°33' W 000°22'  
2015-May-16 07:13N 39°20' W 009°50'8 9.3
2015-May-16 06:19N 39°12' W 009°51'7 9.1
2015-May-16 05:32N 39°05' W 009°51'9 9.2
2015-May-16 04:32N 38°56' W 009°51'9 9.1
2015-May-16 03:33N 38°47' W 009°51'8 8.4
2015-May-16 02:33N 38°38' W 009°49'10 8.9
2015-May-16 01:25N 38°29' W 009°46'7 8.2
2015-May-16 00:33N 38°22' W 009°44'8 7.4
2015-May-15 23:30N 38°14' W 009°42'7 6.9
2015-May-15 22:33N 38°08' W 009°40'6 6.1
2015-May-15 21:33N 38°02' W 009°39'6 5.8
2015-May-15 20:33N 37°56' W 009°38'4 4.5
2015-May-15 19:33N 37°51' W 009°37'6 5.7
2015-May-15 18:33N 37°46' W 009°34'6 6.0
2015-May-15 17:33N 37°40' W 009°32'7 6.6
2015-May-15 16:33N 37°34' W 009°31'7 7.2
2015-May-15 15:33N 37°27' W 009°29'8 7.5
2015-May-15 14:32N 37°19' W 009°27'9 8.1
2015-May-15 13:28N 37°11' W 009°24'10 8.5
2015-May-15 12:21N 37°02' W 009°22'10 8.0
2015-May-15 11:03N 36°52' W 009°18'13 8.5
2015-May-15 09:30N 36°43' W 009°05'9 9.3
2015-May-15 08:31N 36°40' W 008°54'1111.2
2015-May-15 07:33N 36°37' W 008°42'1712.7
2015-May-15 06:12N 36°32' W 008°21'812.6
2015-May-15 05:32N 36°29' W 008°11'12912.7
2015-May-14 19:23N 35°58' W 005°36'1011.3
2015-May-14 18:32N 36°01' W 005°25'8 8.5
2015-May-14 17:33N 36°09' W 005°25'0 0.2
2015-May-14 16:23N 36°09' W 005°24'0 0.3
2015-May-14 15:32N 36°09' W 005°25'0 0.1
2015-May-14 14:32N 36°09' W 005°25'0 0.0
2015-May-14 13:32N 36°09' W 005°25'0 0.0
2015-May-14 12:33N 36°09' W 005°25'0 0.0
2015-May-14 11:20N 36°09' W 005°25'0 0.1
2015-May-14 10:29N 36°09' W 005°25'0 0.0
2015-May-14 09:26N 36°09' W 005°25'0 0.2
2015-May-14 08:32N 36°09' W 005°24'0 0.1
2015-May-14 07:23N 36°09' W 005°25'0 0.0
2015-May-14 06:23N 36°09' W 005°25'0 0.0
2015-May-14 05:26N 36°09' W 005°25'0 0.0
2015-May-14 04:32N 36°09' W 005°25'0 0.1
2015-May-14 03:32N 36°09' W 005°25'0 0.1
2015-May-14 02:32N 36°09' W 005°25'0 0.1
2015-May-14 01:32N 36°09' W 005°25'0 0.1
2015-May-14 00:32N 36°09' W 005°25'0 0.0
2015-May-13 23:29N 36°09' W 005°25'0 0.0
2015-May-13 22:32N 36°09' W 005°25'0 0.0
2015-May-13 21:19N 36°09' W 005°24'0 0.0
2015-May-13 20:28N 36°09' W 005°25'0 0.0
2015-May-13 19:31N 36°09' W 005°25'0 0.0
2015-May-13 18:04N 36°09' W 005°24'0 0.1
2015-May-13 17:28N 36°09' W 005°25'0 0.0
2015-May-13 16:31N 36°09' W 005°25'0 0.1
2015-May-13 15:22N 36°09' W 005°25'0 0.0
2015-May-13 14:10N 36°09' W 005°25'0 0.0
2015-May-13 13:31N 36°09' W 005°25'0 0.0
2015-May-13 12:28N 36°09' W 005°25'0 0.3
2015-May-13 11:19N 36°09' W 005°24'5 5.9
2015-May-13 10:32N 36°05' W 005°22'2 2.4
2015-May-13 09:33N 36°03' W 005°20'1 0.6
2015-May-13 08:23N 36°04' W 005°21'0 0.1
2015-May-13 07:34N 36°04' W 005°21'7 6.9
2015-May-13 06:34N 36°04' W 005°12'10513.1
2015-May-12 22:33N 36°21' W 003°03'1414.0
2015-May-12 21:33N 36°23' W 002°46'1414.0
2015-May-12 20:33N 36°25' W 002°29'1413.9
2015-May-12 19:33N 36°26' W 002°12'1414.0
2015-May-12 18:33N 36°28' W 001°55'1513.7
2015-May-12 17:28N 36°30' W 001°36'6 6.5
2015-May-12 16:32N 36°32' W 001°29'1313.7
2015-May-12 15:33N 36°33' W 001°12'1414.2
2015-May-12 14:33N 36°35' W 000°55'1414.2
2015-May-12 13:33N 36°36' W 000°37'1414.2
2015-May-12 12:33N 36°39' W 000°20'1414.4
2015-May-12 11:33N 36°41' W 000°02'1414.1
2015-May-12 10:33N 36°42' E 000°16'1414.0
2015-May-12 09:33N 36°43' E 000°33'1313.4
2015-May-12 08:33N 36°45' E 000°50'1312.9
2015-May-12 07:33N 36°47' E 001°06'1412.5
2015-May-12 06:28N 36°50' E 001°22'1613.1
2015-May-12 05:16N 36°52' E 001°42'1013.5
2015-May-12 04:33N 36°53' E 001°54'1313.5
2015-May-12 03:33N 36°55' E 002°10'1413.5
2015-May-12 02:33N 36°56' E 002°27'1414.0
2015-May-12 01:33N 36°58' E 002°45'1413.7
2015-May-12 00:33N 37°01' E 003°01'1413.9
2015-May-11 23:34N 37°03' E 003°19'1414.0
2015-May-11 22:33N 37°05' E 003°36'1413.9
2015-May-11 21:33N 37°06' E 003°54'1414.0
2015-May-11 20:33N 37°05' E 004°11'1413.7
2015-May-11 19:33N 37°03' E 004°28'1414.0
2015-May-11 18:34N 37°01' E 004°45'1413.6
2015-May-11 17:33N 36°59' E 005°02'1413.5
2015-May-11 16:33N 36°57' E 005°19'1413.6
2015-May-11 15:32N 36°54' E 005°36'1312.7
2015-May-11 14:33N 36°52' E 005°51'  
Track history (hours):
 
Tides and Currents Weather Stations Pressure Air Temp Water Temp Dewpoint Dewpoint Depression Visibility Wind Speed Wind Dir Waves Ship Positions

Ljuta

Last reported at 2015-May-19 11:13 UTC. Time now 2015-May-22 14:39 UTC.
Position N 49°28' E 000°56'.

Length 177 m; draft 6.1 m.

Type: Cargo ship. MMSI: 377715000.

Date/timePositionNaut miles runAvg speedWind from/ knotsBaromVisibWave heightAir tempDewpointWater temp
2015-May-19 11:13N 49°28' E 000°56'4 6.3
2015-May-19 10:31N 49°24' E 000°52'9 7.2
2015-May-19 09:14N 49°29' E 000°40'6 8.2
2015-May-19 08:33N 49°29' E 000°32'1313.4
2015-May-19 07:34N 49°26' E 000°11'1110.7
2015-May-19 06:34N 49°29' W 000°04'3 3.0
2015-May-19 05:32N 49°29' W 000°09'0 0.0
2015-May-19 04:32N 49°29' W 000°09'0 0.2
2015-May-19 03:32N 49°29' W 000°09'1 1.5
2015-May-19 02:33N 49°30' W 000°11'7 7.3
2015-May-19 01:33N 49°33' W 000°22'  
2015-May-16 07:13N 39°20' W 009°50'8 9.3
2015-May-16 06:19N 39°12' W 009°51'7 9.1
2015-May-16 05:32N 39°05' W 009°51'9 9.2
2015-May-16 04:32N 38°56' W 009°51'9 9.1
2015-May-16 03:33N 38°47' W 009°51'8 8.4
2015-May-16 02:33N 38°38' W 009°49'10 8.9
2015-May-16 01:25N 38°29' W 009°46'7 8.2
2015-May-16 00:33N 38°22' W 009°44'8 7.4
2015-May-15 23:30N 38°14' W 009°42'7 6.9
2015-May-15 22:33N 38°08' W 009°40'6 6.1
2015-May-15 21:33N 38°02' W 009°39'6 5.8
2015-May-15 20:33N 37°56' W 009°38'4 4.5
2015-May-15 19:33N 37°51' W 009°37'6 5.7
2015-May-15 18:33N 37°46' W 009°34'6 6.0
2015-May-15 17:33N 37°40' W 009°32'7 6.6
2015-May-15 16:33N 37°34' W 009°31'7 7.2
2015-May-15 15:33N 37°27' W 009°29'8 7.5
2015-May-15 14:32N 37°19' W 009°27'9 8.1
2015-May-15 13:28N 37°11' W 009°24'10 8.5
2015-May-15 12:21N 37°02' W 009°22'10 8.0
2015-May-15 11:03N 36°52' W 009°18'13 8.5
2015-May-15 09:30N 36°43' W 009°05'9 9.3
2015-May-15 08:31N 36°40' W 008°54'1111.2
2015-May-15 07:33N 36°37' W 008°42'1712.7
2015-May-15 06:12N 36°32' W 008°21'812.6
2015-May-15 05:32N 36°29' W 008°11'12912.7
2015-May-14 19:23N 35°58' W 005°36'1011.3
2015-May-14 18:32N 36°01' W 005°25'8 8.5
2015-May-14 17:33N 36°09' W 005°25'0 0.2
2015-May-14 16:23N 36°09' W 005°24'0 0.3
2015-May-14 15:32N 36°09' W 005°25'0 0.1
2015-May-14 14:32N 36°09' W 005°25'0 0.0
2015-May-14 13:32N 36°09' W 005°25'0 0.0
2015-May-14 12:33N 36°09' W 005°25'0 0.0
2015-May-14 11:20N 36°09' W 005°25'0 0.1
2015-May-14 10:29N 36°09' W 005°25'0 0.0
2015-May-14 09:26N 36°09' W 005°25'0 0.2
2015-May-14 08:32N 36°09' W 005°24'0 0.1
2015-May-14 07:23N 36°09' W 005°25'0 0.0
2015-May-14 06:23N 36°09' W 005°25'0 0.0
2015-May-14 05:26N 36°09' W 005°25'0 0.0
2015-May-14 04:32N 36°09' W 005°25'0 0.1
2015-May-14 03:32N 36°09' W 005°25'0 0.1
2015-May-14 02:32N 36°09' W 005°25'0 0.1
2015-May-14 01:32N 36°09' W 005°25'0 0.1
2015-May-14 00:32N 36°09' W 005°25'0 0.0
2015-May-13 23:29N 36°09' W 005°25'0 0.0
2015-May-13 22:32N 36°09' W 005°25'0 0.0
2015-May-13 21:19N 36°09' W 005°24'0 0.0
2015-May-13 20:28N 36°09' W 005°25'0 0.0
2015-May-13 19:31N 36°09' W 005°25'0 0.0
2015-May-13 18:04N 36°09' W 005°24'0 0.1
2015-May-13 17:28N 36°09' W 005°25'0 0.0
2015-May-13 16:31N 36°09' W 005°25'0 0.1
2015-May-13 15:22N 36°09' W 005°25'0 0.0
2015-May-13 14:10N 36°09' W 005°25'0 0.0
2015-May-13 13:31N 36°09' W 005°25'0 0.0
2015-May-13 12:28N 36°09' W 005°25'0 0.3
2015-May-13 11:19N 36°09' W 005°24'5 5.9
2015-May-13 10:32N 36°05' W 005°22'2 2.4
2015-May-13 09:33N 36°03' W 005°20'1 0.6
2015-May-13 08:23N 36°04' W 005°21'0 0.1
2015-May-13 07:34N 36°04' W 005°21'7 6.9
2015-May-13 06:34N 36°04' W 005°12'10513.1
2015-May-12 22:33N 36°21' W 003°03'1414.0
2015-May-12 21:33N 36°23' W 002°46'1414.0
2015-May-12 20:33N 36°25' W 002°29'1413.9
2015-May-12 19:33N 36°26' W 002°12'1414.0
2015-May-12 18:33N 36°28' W 001°55'1513.7
2015-May-12 17:28N 36°30' W 001°36'6 6.5
2015-May-12 16:32N 36°32' W 001°29'1313.7
2015-May-12 15:33N 36°33' W 001°12'1414.2
2015-May-12 14:33N 36°35' W 000°55'1414.2
2015-May-12 13:33N 36°36' W 000°37'1414.2
2015-May-12 12:33N 36°39' W 000°20'1414.4
2015-May-12 11:33N 36°41' W 000°02'1414.1
2015-May-12 10:33N 36°42' E 000°16'1414.0
2015-May-12 09:33N 36°43' E 000°33'1313.4
2015-May-12 08:33N 36°45' E 000°50'1312.9
2015-May-12 07:33N 36°47' E 001°06'1412.5
2015-May-12 06:28N 36°50' E 001°22'1613.1
2015-May-12 05:16N 36°52' E 001°42'1013.5
2015-May-12 04:33N 36°53' E 001°54'1313.5
2015-May-12 03:33N 36°55' E 002°10'1413.5
2015-May-12 02:33N 36°56' E 002°27'1414.0
2015-May-12 01:33N 36°58' E 002°45'1413.7
2015-May-12 00:33N 37°01' E 003°01'1413.9
2015-May-11 23:34N 37°03' E 003°19'1414.0
2015-May-11 22:33N 37°05' E 003°36'1413.9
2015-May-11 21:33N 37°06' E 003°54'1414.0
2015-May-11 20:33N 37°05' E 004°11'1413.7
2015-May-11 19:33N 37°03' E 004°28'1414.0
2015-May-11 18:34N 37°01' E 004°45'1413.6
2015-May-11 17:33N 36°59' E 005°02'1413.5
2015-May-11 16:33N 36°57' E 005°19'1413.6
2015-May-11 15:32N 36°54' E 005°36'1312.7
2015-May-11 14:33N 36°52' E 005°51'  

Dump ship's entire track history